createdAt,value
2018-07-03T00:00:39.725Z,35.85
2018-07-03T00:03:08.123Z,35.28
2018-07-03T00:05:36.767Z,35.68
2018-07-03T00:08:05.238Z,35.47
2018-07-03T00:10:33.669Z,37.07
2018-07-03T00:13:02.079Z,36.65
2018-07-03T00:15:30.517Z,37.35
2018-07-03T00:17:59.451Z,37.52
2018-07-03T00:20:27.856Z,37.22
2018-07-03T00:22:56.262Z,37.00
2018-07-03T00:25:24.774Z,37.10
2018-07-03T00:27:53.337Z,37.16
2018-07-03T00:30:21.696Z,37.78
2018-07-03T00:32:50.145Z,37.76
2018-07-03T00:35:18.475Z,38.48
2018-07-03T00:37:46.922Z,38.95
2018-07-03T00:40:15.324Z,38.35
2018-07-03T00:42:43.703Z,39.49
2018-07-03T00:45:12.036Z,39.13
2018-07-03T00:47:40.443Z,38.40
2018-07-03T00:50:08.819Z,38.38
2018-07-03T00:52:37.270Z,39.28
2018-07-03T00:55:05.769Z,37.81
2018-07-03T00:57:34.107Z,38.61
2018-07-03T01:00:13.763Z,38.73
2018-07-03T01:02:42.143Z,39.67
2018-07-03T01:05:10.493Z,39.66
2018-07-03T01:07:38.814Z,39.21
2018-07-03T01:10:07.403Z,39.11
2018-07-03T01:12:35.790Z,39.16
2018-07-03T01:15:04.198Z,39.93
2018-07-03T01:17:32.547Z,39.73
2018-07-03T01:20:00.892Z,39.28
2018-07-03T01:22:29.249Z,40.25
2018-07-03T01:24:57.554Z,39.01
2018-07-03T01:27:25.883Z,39.50
2018-07-03T01:29:54.259Z,39.08
2018-07-03T01:32:22.646Z,39.25
2018-07-03T01:34:50.995Z,40.63
2018-07-03T01:37:19.347Z,39.86
2018-07-03T01:39:47.682Z,40.06
2018-07-03T01:42:16.068Z,39.46
2018-07-03T01:44:44.502Z,39.87
2018-07-03T01:47:12.848Z,41.10
2018-07-03T01:49:41.199Z,40.03
2018-07-03T01:52:09.544Z,41.21
2018-07-03T01:54:37.897Z,40.59
2018-07-03T01:57:06.320Z,41.00
2018-07-03T01:59:34.730Z,40.47
2018-07-03T02:02:03.090Z,41.49
2018-07-03T02:04:31.415Z,42.36
2018-07-03T02:06:59.721Z,41.66
2018-07-03T02:09:28.075Z,41.84
2018-07-03T02:11:56.420Z,42.07
2018-07-03T02:14:24.792Z,41.18
2018-07-03T02:16:53.159Z,41.62
2018-07-03T02:19:21.459Z,41.94
2018-07-03T02:21:49.799Z,42.58
2018-07-03T02:24:18.135Z,41.28
2018-07-03T02:26:46.554Z,41.26
2018-07-03T02:29:14.907Z,42.28
2018-07-03T02:31:43.256Z,41.91
2018-07-03T02:34:11.547Z,42.10
2018-07-03T02:36:39.902Z,42.45
2018-07-03T02:39:09.767Z,41.77
2018-07-03T02:41:38.361Z,42.04
2018-07-03T02:44:06.699Z,41.92
2018-07-03T02:46:35.198Z,42.42
2018-07-03T02:49:03.621Z,42.62
2018-07-03T02:51:31.935Z,43.15
2018-07-03T02:54:00.267Z,42.81
2018-07-03T02:56:28.648Z,43.80
2018-07-03T02:58:57.048Z,43.11
2018-07-03T03:01:25.471Z,41.80
2018-07-03T03:03:53.795Z,42.94
2018-07-03T03:06:22.107Z,42.16
2018-07-03T03:08:50.459Z,41.85
2018-07-03T03:11:22.923Z,42.31
2018-07-03T03:13:53.132Z,42.18
2018-07-03T03:16:21.518Z,42.82
2018-07-03T03:18:49.880Z,42.79
2018-07-03T03:21:18.312Z,42.94
2018-07-03T03:23:46.683Z,42.92
2018-07-03T03:26:15.205Z,41.80
2018-07-03T03:28:43.748Z,42.56
2018-07-03T03:31:12.090Z,41.39
2018-07-03T03:33:40.404Z,41.68
2018-07-03T03:36:08.783Z,42.48
2018-07-03T03:38:37.131Z,41.50
2018-07-03T03:41:05.477Z,42.50
2018-07-03T03:43:33.822Z,42.62
2018-07-03T03:46:02.259Z,42.26
2018-07-03T03:48:30.780Z,42.19
2018-07-03T03:50:59.114Z,42.80
2018-07-03T03:53:27.484Z,41.91
2018-07-03T03:55:55.842Z,42.04
2018-07-03T03:58:24.186Z,42.10
2018-07-03T04:00:52.564Z,42.60
2018-07-03T04:03:20.996Z,42.40
2018-07-03T04:05:49.347Z,42.94
2018-07-03T04:08:17.821Z,43.28
2018-07-03T04:10:46.207Z,44.67
2018-07-03T04:13:14.608Z,45.51
2018-07-03T04:15:43.125Z,46.87
2018-07-03T04:18:11.459Z,47.32
2018-07-03T04:20:39.865Z,47.61
2018-07-03T04:23:08.220Z,47.02
2018-07-03T04:25:36.583Z,45.93
2018-07-03T04:28:04.937Z,46.10
2018-07-03T04:30:33.296Z,47.28
2018-07-03T04:33:01.628Z,47.54
2018-07-03T04:35:30.010Z,46.82
2018-07-03T04:37:58.387Z,47.34
2018-07-03T04:40:26.720Z,46.63
2018-07-03T04:42:55.075Z,46.43
2018-07-03T04:45:23.399Z,46.84
2018-07-03T04:47:51.831Z,47.71
2018-07-03T04:50:20.316Z,47.74
2018-07-03T04:52:48.879Z,48.10
2018-07-03T04:55:17.398Z,47.79
2018-07-03T04:57:45.702Z,48.38
2018-07-03T05:00:15.283Z,47.40
2018-07-03T05:02:43.593Z,48.11
2018-07-03T05:05:11.997Z,48.02
2018-07-03T05:07:40.518Z,48.38
2018-07-03T05:10:09.019Z,48.02
2018-07-03T05:12:37.332Z,48.51
2018-07-03T05:15:05.869Z,47.79
2018-07-03T05:17:34.298Z,48.42
2018-07-03T05:20:02.636Z,47.43
2018-07-03T05:22:31.195Z,48.15
2018-07-03T05:24:59.714Z,48.39
2018-07-03T05:27:28.135Z,48.67
2018-07-03T05:29:56.467Z,48.22
2018-07-03T05:32:24.830Z,48.61
2018-07-03T05:34:53.251Z,48.63
2018-07-03T05:37:21.649Z,48.19
2018-07-03T05:39:50.418Z,48.43
2018-07-03T05:42:18.841Z,48.99
2018-07-03T05:44:47.148Z,47.81
2018-07-03T05:47:15.476Z,46.99
2018-07-03T05:49:46.902Z,47.06
2018-07-03T05:52:15.208Z,46.77
2018-07-03T05:54:43.527Z,46.31
2018-07-03T05:57:11.878Z,47.60
2018-07-03T05:59:40.186Z,47.48
2018-07-03T06:02:08.767Z,48.19
2018-07-03T06:04:37.123Z,47.53
2018-07-03T06:07:05.668Z,46.44
2018-07-03T06:09:34.017Z,45.92
2018-07-03T06:12:02.345Z,45.40
2018-07-03T06:14:30.687Z,44.61
2018-07-03T06:16:59.163Z,42.90
2018-07-03T06:19:27.688Z,42.44
2018-07-03T06:21:56.741Z,43.36
2018-07-03T06:24:25.664Z,43.38
2018-07-03T06:26:54.052Z,43.60
2018-07-03T06:29:22.463Z,44.23
2018-07-03T06:31:50.821Z,44.36
2018-07-03T06:34:19.171Z,42.35
2018-07-03T06:36:47.579Z,41.31
2018-07-03T06:39:15.822Z,40.98
2018-07-03T06:41:44.163Z,41.32
2018-07-03T06:44:12.739Z,41.32
2018-07-03T06:46:41.043Z,40.64
2018-07-03T06:49:09.507Z,40.58
2018-07-03T06:51:37.872Z,40.62
2018-07-03T06:54:06.203Z,42.03
2018-07-03T06:56:34.572Z,40.80
2018-07-03T06:59:02.975Z,40.45
2018-07-03T07:01:31.292Z,41.34
2018-07-03T07:03:59.580Z,40.69
2018-07-03T07:06:27.902Z,40.33
2018-07-03T07:08:56.314Z,39.46
2018-07-03T07:11:24.643Z,39.52
2018-07-03T07:13:52.963Z,39.53
2018-07-03T07:16:21.288Z,39.01
2018-07-03T07:18:49.588Z,39.19
2018-07-03T07:21:19.549Z,39.65
2018-07-03T07:23:47.915Z,39.93
2018-07-03T07:26:16.365Z,38.06
2018-07-03T07:28:44.741Z,39.11
2018-07-03T07:31:13.168Z,38.46
2018-07-03T07:33:41.524Z,39.83
2018-07-03T07:36:09.815Z,40.52
2018-07-03T07:38:38.173Z,39.70
2018-07-03T07:41:06.687Z,38.11
2018-07-03T07:43:35.004Z,39.35
2018-07-03T07:46:03.330Z,38.73
2018-07-03T07:48:31.639Z,37.85
2018-07-03T07:51:00.828Z,38.31
2018-07-03T07:53:29.168Z,38.47
2018-07-03T07:55:57.679Z,37.15
2018-07-03T07:58:26.120Z,37.71
2018-07-03T08:00:54.451Z,38.70
2018-07-03T08:03:22.799Z,37.94
2018-07-03T08:05:51.162Z,36.94
2018-07-03T08:08:19.555Z,34.51
2018-07-03T08:10:47.927Z,36.04
2018-07-03T08:13:16.331Z,37.31
2018-07-03T08:15:44.639Z,36.23
2018-07-03T08:18:12.985Z,35.46
2018-07-03T08:20:41.323Z,35.34
2018-07-03T08:23:09.700Z,33.90
2018-07-03T08:25:38.086Z,37.68
2018-07-03T08:28:06.535Z,39.02
2018-07-03T08:30:35.007Z,38.15
2018-07-03T08:33:03.385Z,36.75
2018-07-03T08:35:32.186Z,37.58
2018-07-03T08:38:00.503Z,36.95
2018-07-03T08:40:28.923Z,35.90
2018-07-03T08:42:57.527Z,34.50
2018-07-03T08:45:25.876Z,35.28
2018-07-03T08:47:54.251Z,34.19
2018-07-03T08:50:22.562Z,33.52
2018-07-03T08:52:50.981Z,34.23
2018-07-03T08:55:19.331Z,33.59
2018-07-03T08:57:47.649Z,32.57
2018-07-03T09:00:16.006Z,32.25
2018-07-03T09:02:44.387Z,32.88
2018-07-03T09:05:12.779Z,32.97
2018-07-03T09:07:41.110Z,33.09
2018-07-03T09:10:09.478Z,32.51
2018-07-03T09:12:37.835Z,32.75
2018-07-03T09:15:06.754Z,34.69
2018-07-03T09:17:36.931Z,34.20
2018-07-03T09:20:07.935Z,32.62
2018-07-03T09:22:38.408Z,33.73
2018-07-03T09:25:07.404Z,33.48
2018-07-03T09:27:35.747Z,32.73
2018-07-03T09:30:04.945Z,34.21
2018-07-03T09:32:33.532Z,32.96
2018-07-03T09:35:01.867Z,33.08
2018-07-03T09:37:30.223Z,33.46
2018-07-03T09:39:58.567Z,31.36
2018-07-03T09:42:26.936Z,32.27
2018-07-03T09:44:55.241Z,32.38
2018-07-03T09:47:23.675Z,31.43
2018-07-03T09:49:51.987Z,32.38
2018-07-03T09:52:20.800Z,31.84
2018-07-03T09:54:49.180Z,31.59
2018-07-03T09:57:17.654Z,32.38
2018-07-03T09:59:46.055Z,32.15
2018-07-03T10:02:15.084Z,33.67
2018-07-03T10:04:43.429Z,33.66
2018-07-03T10:07:11.894Z,34.42
2018-07-03T10:09:40.467Z,32.89
2018-07-03T10:12:08.957Z,32.20
2018-07-03T10:14:37.313Z,32.84
2018-07-03T10:17:05.687Z,33.62
2018-07-03T10:19:33.977Z,33.15
2018-07-03T10:22:02.295Z,33.62
2018-07-03T10:24:30.684Z,33.95
2018-07-03T10:26:58.995Z,31.87
2018-07-03T10:29:27.350Z,31.26
2018-07-03T10:31:55.680Z,30.53
2018-07-03T10:34:24.348Z,30.46
2018-07-03T10:36:52.655Z,32.15
2018-07-03T10:39:21.054Z,30.54
2018-07-03T10:41:49.511Z,30.81
2018-07-03T10:44:17.835Z,30.59
2018-07-03T10:46:46.160Z,31.57
2018-07-03T10:49:14.539Z,30.26
2018-07-03T10:51:42.929Z,31.18
2018-07-03T10:54:11.352Z,30.33
2018-07-03T10:56:39.695Z,30.14
2018-07-03T10:59:08.037Z,28.83
2018-07-03T11:01:36.398Z,28.41
2018-07-03T11:04:04.891Z,28.04
2018-07-03T11:06:33.363Z,26.48
2018-07-03T11:09:01.919Z,27.75
2018-07-03T11:11:30.320Z,27.70
2018-07-03T11:13:59.533Z,26.78
2018-07-03T11:16:27.855Z,27.25
2018-07-03T11:18:56.157Z,26.59
2018-07-03T11:21:24.520Z,27.30
2018-07-03T11:23:53.151Z,27.16
2018-07-03T11:26:21.522Z,26.64
2018-07-03T11:28:50.024Z,26.63
2018-07-03T11:31:18.297Z,26.75
2018-07-03T11:33:46.784Z,26.42
2018-07-03T11:36:15.076Z,24.77
2018-07-03T11:38:43.439Z,25.21
2018-07-03T11:41:12.232Z,24.91
2018-07-03T11:43:40.540Z,25.26
2018-07-03T11:46:09.188Z,24.92
2018-07-03T11:48:37.508Z,23.91
2018-07-03T11:51:06.415Z,24.31
2018-07-03T11:53:34.994Z,23.58
2018-07-03T11:56:03.379Z,23.96
2018-07-03T11:58:31.708Z,23.47
2018-07-03T12:01:00.049Z,22.90
2018-07-03T12:03:28.379Z,22.67
2018-07-03T12:05:56.718Z,23.69
2018-07-03T12:08:25.126Z,23.80
2018-07-03T12:10:53.475Z,21.22
2018-07-03T12:13:21.960Z,22.29
2018-07-03T12:15:50.315Z,22.69
2018-07-03T12:18:23.882Z,21.57
2018-07-03T12:20:52.288Z,22.21
2018-07-03T12:23:21.203Z,22.60
2018-07-03T12:25:49.575Z,20.61
2018-07-03T12:28:17.895Z,21.08
2018-07-03T12:30:46.244Z,20.74
2018-07-03T12:33:14.562Z,21.87
2018-07-03T12:35:42.911Z,20.14
2018-07-03T12:38:11.252Z,20.08
2018-07-03T12:40:39.613Z,20.15
2018-07-03T12:43:08.615Z,21.18
2018-07-03T12:45:37.028Z,21.43
2018-07-03T12:48:05.440Z,20.25
2018-07-03T12:50:33.780Z,23.16
2018-07-03T12:53:02.163Z,23.53
2018-07-03T12:55:30.647Z,22.33
2018-07-03T12:57:58.958Z,22.02
2018-07-03T13:00:27.420Z,22.68
2018-07-03T13:02:56.385Z,21.37
2018-07-03T13:05:25.076Z,21.20
2018-07-03T13:07:53.962Z,21.25
2018-07-03T13:10:22.316Z,21.26
2018-07-03T13:12:50.832Z,22.18
2018-07-03T13:15:19.168Z,21.57
2018-07-03T13:17:47.483Z,20.89
2018-07-03T13:20:15.917Z,21.42
2018-07-03T13:22:44.308Z,21.47
2018-07-03T13:25:13.152Z,21.48
2018-07-03T13:27:41.652Z,20.30
2018-07-03T13:30:10.601Z,21.74
2018-07-03T13:32:38.913Z,20.27
2018-07-03T13:35:08.575Z,21.86
2018-07-03T13:37:36.978Z,20.84
2018-07-03T13:40:06.087Z,21.49
2018-07-03T13:42:34.495Z,22.17
2018-07-03T13:45:02.812Z,21.14
2018-07-03T13:47:31.127Z,21.98
2018-07-03T13:49:59.448Z,21.25
2018-07-03T13:52:27.771Z,21.59
2018-07-03T13:54:56.103Z,21.71
2018-07-03T13:57:24.467Z,20.67
2018-07-03T13:59:52.791Z,19.95
2018-07-03T14:02:21.134Z,22.98
2018-07-03T14:04:49.459Z,23.32
2018-07-03T14:07:17.840Z,21.38
2018-07-03T14:09:46.255Z,21.51
2018-07-03T14:12:14.597Z,21.03
2018-07-03T14:14:43.244Z,19.79
2018-07-03T14:17:11.575Z,20.80
2018-07-03T14:19:40.046Z,19.70
2018-07-03T14:22:08.558Z,19.68
2018-07-03T14:24:36.878Z,20.47
2018-07-03T14:27:05.244Z,20.84
2018-07-03T14:29:33.535Z,21.66
2018-07-03T14:32:01.906Z,22.13
2018-07-03T14:34:30.236Z,20.89
2018-07-03T14:36:58.660Z,21.69
2018-07-03T14:39:27.619Z,20.80
2018-07-03T14:41:55.967Z,21.07
2018-07-03T14:44:24.334Z,21.23
2018-07-03T14:46:52.660Z,21.16
2018-07-03T14:49:20.940Z,21.44
2018-07-03T14:51:49.271Z,20.43
2018-07-03T14:54:17.799Z,21.03
2018-07-03T14:56:46.127Z,21.94
2018-07-03T14:59:14.531Z,20.70
2018-07-03T15:01:42.928Z,21.72
2018-07-03T15:04:11.266Z,21.08
2018-07-03T15:06:39.616Z,22.19
2018-07-03T15:09:09.853Z,22.93
2018-07-03T15:11:38.163Z,21.34
2018-07-03T15:14:06.584Z,22.38
2018-07-03T15:16:34.977Z,21.54
2018-07-03T15:19:08.720Z,22.32
2018-07-03T15:21:37.059Z,21.20
2018-07-03T15:24:07.023Z,21.92
2018-07-03T15:26:35.690Z,22.15
2018-07-03T15:29:04.316Z,21.69
2018-07-03T15:31:32.703Z,21.95
2018-07-03T15:34:01.107Z,21.46
2018-07-03T15:36:29.564Z,21.17
2018-07-03T15:38:57.910Z,21.48
2018-07-03T15:41:26.735Z,22.37
2018-07-03T15:44:06.195Z,22.19
2018-07-03T15:46:34.673Z,21.25
2018-07-03T15:49:03.034Z,21.06
2018-07-03T15:51:31.387Z,20.97
2018-07-03T15:53:59.769Z,21.49
2018-07-03T15:56:28.086Z,21.10
2018-07-03T15:58:59.055Z,21.69
2018-07-03T16:01:27.503Z,19.75
2018-07-03T16:04:07.087Z,20.93
2018-07-03T16:06:56.171Z,21.60
2018-07-03T16:09:24.754Z,20.19
2018-07-03T16:11:53.047Z,20.47
2018-07-03T16:14:21.521Z,18.79
2018-07-03T16:16:50.008Z,19.04
2018-07-03T16:19:23.731Z,17.70
2018-07-03T16:21:52.139Z,17.09
2018-07-03T16:24:20.524Z,18.03
2018-07-03T16:26:48.955Z,17.59
2018-07-03T16:29:17.349Z,16.79
2018-07-03T16:31:45.695Z,17.26
2018-07-03T16:34:14.048Z,16.48
2018-07-03T16:36:42.399Z,15.93
2018-07-03T16:39:12.356Z,15.80
2018-07-03T16:41:41.163Z,15.63
2018-07-03T16:44:10.367Z,15.63
2018-07-03T16:46:38.787Z,15.16
2018-07-03T16:49:07.188Z,15.77
2018-07-03T16:51:36.157Z,16.29
2018-07-03T16:54:04.641Z,16.07
2018-07-03T16:56:33.023Z,16.00
2018-07-03T16:59:01.460Z,16.36
2018-07-03T17:01:29.887Z,16.11
2018-07-03T17:03:58.247Z,15.48
2018-07-03T17:06:26.568Z,15.69
2018-07-03T17:08:54.915Z,15.64
2018-07-03T17:11:23.391Z,16.39
2018-07-03T17:13:51.834Z,16.83
2018-07-03T17:16:20.103Z,17.66
2018-07-03T17:18:53.823Z,17.22
2018-07-03T17:21:22.183Z,17.44
2018-07-03T17:23:50.615Z,17.44
2018-07-03T17:26:18.966Z,17.78
2018-07-03T17:28:47.280Z,18.11
2018-07-03T17:31:15.725Z,18.23
2018-07-03T17:33:44.061Z,18.63
2018-07-03T17:36:13.191Z,19.77
2018-07-03T17:38:42.066Z,21.00
2018-07-03T17:41:21.502Z,20.71
2018-07-03T17:44:03.860Z,22.03
2018-07-03T17:46:32.416Z,21.54
2018-07-03T17:49:00.776Z,21.21
2018-07-03T17:51:32.107Z,21.70
2018-07-03T17:54:01.073Z,21.02
2018-07-03T17:56:29.448Z,21.19
2018-07-03T17:58:57.842Z,21.43
2018-07-03T18:01:26.199Z,21.84
2018-07-03T18:03:54.566Z,22.67
2018-07-03T18:06:22.984Z,23.87
2018-07-03T18:08:51.679Z,24.77
2018-07-03T18:11:20.426Z,23.93
2018-07-03T18:13:48.764Z,25.07
2018-07-03T18:16:17.595Z,24.23
2018-07-03T18:18:46.033Z,24.69
2018-07-03T18:21:14.349Z,24.53
2018-07-03T18:23:42.751Z,24.59
2018-07-03T18:26:11.170Z,24.80
2018-07-03T18:28:39.483Z,24.82
2018-07-03T18:31:07.843Z,25.50
2018-07-03T18:33:36.195Z,24.63
2018-07-03T18:36:05.376Z,26.30
2018-07-03T18:38:33.723Z,26.09
2018-07-03T18:41:02.238Z,26.03
2018-07-03T18:43:31.132Z,26.84
2018-07-03T18:45:59.877Z,26.98
2018-07-03T18:48:28.704Z,30.34
2018-07-03T18:50:57.353Z,31.82
2018-07-03T18:53:27.344Z,31.56
2018-07-03T18:55:56.062Z,32.23
2018-07-03T18:58:24.910Z,31.98
2018-07-03T19:00:53.802Z,31.20
2018-07-03T19:03:22.272Z,31.73
2018-07-03T19:05:51.273Z,31.53
2018-07-03T19:08:20.261Z,31.30
2018-07-03T19:10:49.250Z,31.80
2018-07-03T19:13:18.200Z,31.97
2018-07-03T19:15:46.684Z,31.96
2018-07-03T19:18:15.386Z,32.08
2018-07-03T19:20:44.095Z,31.96
2018-07-03T19:23:12.577Z,32.34
2018-07-03T19:25:41.119Z,32.76
2018-07-03T19:28:09.780Z,33.39
2018-07-03T19:30:38.131Z,33.55
2018-07-03T19:33:06.549Z,33.69
2018-07-03T19:35:34.889Z,34.31
2018-07-03T19:38:03.374Z,34.31
2018-07-03T19:40:31.667Z,34.04
2018-07-03T19:43:36.129Z,34.53
2018-07-03T19:46:04.879Z,34.80
2018-07-03T19:48:33.225Z,34.98
2018-07-03T19:51:01.570Z,34.87
2018-07-03T19:53:29.891Z,34.83
2018-07-03T19:55:59.225Z,35.17
2018-07-03T19:58:27.617Z,35.33
2018-07-03T20:00:56.776Z,34.98
2018-07-03T20:03:25.150Z,35.40
2018-07-03T20:05:53.532Z,35.25
2018-07-03T20:08:21.933Z,35.58
2018-07-03T20:10:50.274Z,35.81
2018-07-03T20:13:19.201Z,36.51
2018-07-03T20:15:47.519Z,36.34
2018-07-03T20:18:16.625Z,36.67
2018-07-03T20:20:45.324Z,37.20
2018-07-03T20:23:13.659Z,37.21
2018-07-03T20:25:42.103Z,37.88
2018-07-03T20:28:10.440Z,38.39
2018-07-03T20:30:38.743Z,38.40
2018-07-03T20:33:07.078Z,38.46
2018-07-03T20:35:35.471Z,38.60
2018-07-03T20:38:04.960Z,38.98
2018-07-03T20:41:07.785Z,39.16
2018-07-03T20:43:37.487Z,39.64
2018-07-03T20:46:06.664Z,39.86
2018-07-03T20:48:35.075Z,39.87
2018-07-03T20:51:03.848Z,40.19
2018-07-03T20:53:33.841Z,40.55
2018-07-03T20:56:02.378Z,40.33
2018-07-03T20:58:30.907Z,40.92
2018-07-03T21:00:59.345Z,40.69
2018-07-03T21:03:27.851Z,40.00
2018-07-03T21:05:56.285Z,40.46
2018-07-03T21:08:24.603Z,41.72
2018-07-03T21:10:52.973Z,41.56
2018-07-03T21:13:21.373Z,41.29
2018-07-03T21:15:49.744Z,41.48
2018-07-03T21:18:18.134Z,42.04
2018-07-03T21:20:46.456Z,42.15
2018-07-03T21:23:15.101Z,42.65
2018-07-03T21:25:43.464Z,42.68
2018-07-03T21:28:11.785Z,43.07
2018-07-03T21:30:40.129Z,43.40
2018-07-03T21:33:08.471Z,44.13
2018-07-03T21:35:36.815Z,44.51
2018-07-03T21:38:05.175Z,44.23
2018-07-03T21:40:33.498Z,44.44
2018-07-03T21:43:01.848Z,43.99
2018-07-03T21:45:30.155Z,43.29
2018-07-03T21:47:58.535Z,43.53
2018-07-03T21:50:26.892Z,43.67
2018-07-03T21:52:55.220Z,43.81
2018-07-03T21:55:23.675Z,43.93
2018-07-03T21:57:52.002Z,44.01
2018-07-03T22:00:30.796Z,44.52
2018-07-03T22:02:59.157Z,43.77
2018-07-03T22:05:27.508Z,44.03
2018-07-03T22:07:55.893Z,44.84
2018-07-03T22:10:24.216Z,44.52
2018-07-03T22:12:52.584Z,43.39
2018-07-03T22:15:20.900Z,43.59
2018-07-03T22:17:49.227Z,43.87
2018-07-03T22:20:17.563Z,43.50
2018-07-03T22:22:46.048Z,43.55
2018-07-03T22:25:14.646Z,43.90
2018-07-03T22:27:42.997Z,44.55
2018-07-03T22:30:11.306Z,44.12
2018-07-03T22:32:39.631Z,44.73
2018-07-03T22:35:07.998Z,44.29
2018-07-03T22:37:36.523Z,45.03
2018-07-03T22:40:04.927Z,44.80
2018-07-03T22:42:33.263Z,45.49
2018-07-03T22:45:01.575Z,45.30
2018-07-03T22:47:29.910Z,45.04
2018-07-03T22:49:58.256Z,44.54
2018-07-03T22:52:26.623Z,43.80
2018-07-03T22:54:54.951Z,44.05
2018-07-03T22:57:23.315Z,43.82
2018-07-03T22:59:51.629Z,43.50
2018-07-03T23:02:19.971Z,44.54
2018-07-03T23:04:48.347Z,42.94
2018-07-03T23:07:16.705Z,43.78
2018-07-03T23:09:45.070Z,42.69
2018-07-03T23:12:20.040Z,43.77
2018-07-03T23:14:50.827Z,42.47
2018-07-03T23:17:19.165Z,43.12
2018-07-03T23:19:48.189Z,43.74
2018-07-03T23:22:16.495Z,43.76
2018-07-03T23:24:45.253Z,43.22
2018-07-03T23:27:14.547Z,43.71
2018-07-03T23:29:42.911Z,44.70
2018-07-03T23:32:11.735Z,44.84
2018-07-03T23:34:40.422Z,44.68
2018-07-03T23:37:08.997Z,45.52
2018-07-03T23:39:37.604Z,45.21
2018-07-03T23:42:05.931Z,44.62
2018-07-03T23:44:34.298Z,45.19
2018-07-03T23:47:13.926Z,45.37
2018-07-03T23:49:53.334Z,45.07
2018-07-03T23:52:32.881Z,43.99
2018-07-03T23:55:12.397Z,43.88
2018-07-03T23:57:51.931Z,43.89
